createdAt,value
2022-08-22T00:01:17.818Z,18.36
2022-08-22T00:02:46.313Z,18.36
2022-08-22T00:04:19.292Z,18.36
2022-08-22T00:07:22.396Z,18.36
2022-08-22T00:10:07.999Z,18.36
2022-08-22T00:12:52.119Z,18.36
2022-08-22T00:15:42.550Z,18.35
2022-08-22T00:18:18.304Z,18.35
2022-08-22T00:21:01.741Z,18.35
2022-08-22T00:23:48.648Z,18.34
2022-08-22T00:26:23.484Z,18.36
2022-08-22T00:29:21.198Z,18.51
2022-08-22T00:32:51.786Z,18.72
2022-08-22T00:35:45.120Z,18.83
2022-08-22T00:38:39.027Z,18.74
2022-08-22T00:41:21.819Z,18.62
2022-08-22T00:44:17.479Z,18.54
2022-08-22T00:47:15.888Z,18.47
2022-08-22T00:50:26.456Z,18.42
2022-08-22T00:53:10.753Z,18.36
2022-08-22T00:55:51.010Z,18.31
2022-08-22T00:58:55.670Z,18.26
2022-08-22T01:01:41.956Z,18.20
2022-08-22T01:04:35.017Z,18.14
2022-08-22T01:07:21.814Z,18.07
2022-08-22T01:10:23.994Z,18.02
2022-08-22T01:13:10.753Z,17.95
2022-08-22T01:15:39.825Z,17.91
2022-08-22T01:18:29.298Z,17.88
2022-08-22T01:21:13.387Z,17.82
2022-08-22T01:24:38.719Z,17.79
2022-08-22T01:27:35.547Z,17.74
2022-08-22T01:30:20.281Z,17.71
2022-08-22T01:33:42.385Z,17.67
2022-08-22T01:37:11.216Z,17.64
2022-08-22T01:40:16.769Z,17.60
2022-08-22T01:43:09.557Z,17.58
2022-08-22T01:45:52.537Z,17.55
2022-08-22T01:48:43.965Z,17.53
2022-08-22T01:51:29.255Z,17.52
2022-08-22T01:54:31.342Z,17.51
2022-08-22T01:57:05.395Z,17.50
2022-08-22T01:59:43.783Z,17.50
2022-08-22T02:02:52.370Z,17.49
2022-08-22T02:05:39.195Z,17.49
2022-08-22T02:08:40.999Z,17.49
2022-08-22T02:11:13.917Z,17.45
2022-08-22T02:14:15.902Z,17.44
2022-08-22T02:16:53.540Z,17.45
2022-08-22T02:19:30.648Z,17.39
2022-08-22T02:22:04.685Z,17.35
2022-08-22T02:24:47.426Z,17.32
2022-08-22T02:27:24.574Z,17.27
2022-08-22T02:30:04.057Z,17.27
2022-08-22T02:32:40.841Z,17.32
2022-08-22T02:35:28.938Z,17.36
2022-08-22T02:38:00.088Z,17.39
2022-08-22T02:41:00.546Z,17.38
2022-08-22T02:43:53.587Z,17.32
2022-08-22T02:46:49.688Z,17.27
2022-08-22T02:50:07.371Z,17.24
2022-08-22T02:53:14.142Z,17.35
2022-08-22T02:56:06.996Z,17.31
2022-08-22T02:58:57.315Z,17.24
2022-08-22T03:01:30.168Z,17.19
2022-08-22T03:04:30.369Z,17.15
2022-08-22T03:07:30.409Z,17.11
2022-08-22T03:10:23.449Z,17.09
2022-08-22T03:13:02.138Z,17.07
2022-08-22T03:15:49.510Z,17.04
2022-08-22T03:19:04.911Z,17.00
2022-08-22T03:21:43.307Z,16.98
2022-08-22T03:25:11.240Z,16.96
2022-08-22T03:27:45.355Z,16.94
2022-08-22T03:30:43.992Z,16.93
2022-08-22T03:33:25.168Z,16.91
2022-08-22T03:36:05.477Z,16.89
2022-08-22T03:38:33.265Z,16.87
2022-08-22T03:41:36.750Z,16.86
2022-08-22T03:44:31.041Z,16.85
2022-08-22T03:47:24.233Z,16.84
2022-08-22T03:50:40.526Z,16.86
2022-08-22T03:53:48.882Z,16.92
2022-08-22T03:56:25.954Z,16.94
2022-08-22T03:59:24.048Z,16.91
2022-08-22T04:02:43.910Z,16.89
2022-08-22T04:05:27.088Z,16.88
2022-08-22T04:08:30.051Z,16.87
2022-08-22T04:11:31.508Z,16.86
2022-08-22T04:14:33.129Z,16.87
2022-08-22T04:17:29.869Z,16.87
2022-08-22T04:20:54.371Z,16.88
2022-08-22T04:23:49.682Z,16.88
2022-08-22T04:26:37.567Z,16.93
2022-08-22T04:29:20.074Z,17.00
2022-08-22T04:31:59.382Z,17.06
2022-08-22T04:35:00.774Z,17.10
2022-08-22T04:37:29.098Z,17.13
2022-08-22T04:40:31.187Z,17.16
2022-08-22T04:43:15.583Z,17.16
2022-08-22T04:45:57.536Z,17.11
2022-08-22T04:48:36.904Z,17.07
2022-08-22T04:51:16.046Z,17.04
2022-08-22T04:54:13.215Z,17.02
2022-08-22T04:57:09.704Z,17.01
2022-08-22T04:59:37.867Z,17.00
2022-08-22T05:02:11.871Z,16.99
2022-08-22T05:04:46.660Z,16.98
2022-08-22T05:07:43.096Z,16.97
2022-08-22T05:10:21.502Z,16.97
2022-08-22T05:12:57.868Z,16.96
2022-08-22T05:15:39.409Z,16.99
2022-08-22T05:18:22.179Z,17.04
2022-08-22T05:20:58.301Z,17.08
2022-08-22T05:23:43.331Z,17.06
2022-08-22T05:26:12.938Z,17.15
2022-08-22T05:28:52.545Z,17.66
2022-08-22T05:31:42.406Z,18.30
2022-08-22T05:34:16.397Z,18.88
2022-08-22T05:36:55.752Z,19.20
2022-08-22T05:39:28.041Z,19.30
2022-08-22T05:41:58.982Z,19.44
2022-08-22T05:44:33.211Z,19.55
2022-08-22T05:47:24.591Z,19.68
2022-08-22T05:50:07.177Z,19.71
2022-08-22T05:52:47.530Z,19.67
2022-08-22T05:55:55.444Z,19.61
2022-08-22T05:58:51.984Z,19.62
2022-08-22T06:01:59.488Z,19.64
2022-08-22T06:04:50.208Z,19.49
2022-08-22T06:07:32.175Z,19.55
2022-08-22T06:10:44.681Z,19.59
2022-08-22T06:13:42.736Z,19.73
2022-08-22T06:16:37.665Z,19.80
2022-08-22T06:19:19.298Z,19.89
2022-08-22T06:21:51.720Z,19.71
2022-08-22T06:24:26.566Z,19.58
2022-08-22T06:27:05.940Z,19.57
2022-08-22T06:29:40.261Z,19.41
2022-08-22T06:32:44.461Z,19.20
2022-08-22T06:35:30.286Z,18.90
2022-08-22T06:38:00.276Z,18.76
2022-08-22T06:40:29.003Z,18.68
2022-08-22T06:43:03.235Z,18.51
2022-08-22T06:45:33.132Z,18.38
2022-08-22T06:48:07.486Z,18.27
2022-08-22T06:50:43.648Z,18.15
2022-08-22T06:53:21.278Z,18.09
2022-08-22T06:55:56.413Z,18.03
2022-08-22T06:58:37.681Z,18.83
2022-08-22T07:01:19.206Z,19.40
2022-08-22T07:03:52.809Z,19.31
2022-08-22T07:06:50.445Z,19.41
2022-08-22T07:09:30.167Z,19.26
2022-08-22T07:12:04.526Z,19.19
2022-08-22T07:14:51.223Z,19.17
2022-08-22T07:17:30.411Z,19.22
2022-08-22T07:20:55.883Z,19.37
2022-08-22T07:27:20.256Z,19.51
2022-08-22T07:27:23.580Z,19.62
2022-08-22T07:30:17.053Z,19.74
2022-08-22T07:33:25.899Z,19.82
2022-08-22T07:36:18.848Z,19.71
2022-08-22T07:39:26.689Z,20.36
2022-08-22T07:42:03.461Z,21.30
2022-08-22T07:45:09.718Z,21.74
2022-08-22T07:47:54.959Z,22.29
2022-08-22T07:50:32.907Z,22.70
2022-08-22T07:53:13.603Z,22.72
2022-08-22T07:55:49.512Z,22.75
2022-08-22T07:58:22.728Z,22.77
2022-08-22T08:00:52.039Z,22.84
2022-08-22T08:03:26.810Z,22.55
2022-08-22T08:05:55.504Z,22.33
2022-08-22T08:08:45.013Z,22.15
2022-08-22T08:11:15.534Z,22.38
2022-08-22T08:13:52.021Z,22.82
2022-08-22T08:16:26.472Z,23.04
2022-08-22T08:18:58.802Z,22.96
2022-08-22T08:21:38.026Z,22.55
2022-08-22T08:24:09.462Z,22.16
2022-08-22T08:27:04.115Z,21.82
2022-08-22T08:29:39.312Z,21.53
2022-08-22T08:32:10.668Z,21.30
2022-08-22T08:34:43.775Z,21.24
2022-08-22T08:37:24.744Z,21.08
2022-08-22T08:39:57.802Z,20.84
2022-08-22T08:43:11.372Z,20.64
2022-08-22T08:46:00.996Z,20.46
2022-08-22T08:49:26.372Z,20.31
2022-08-22T08:52:12.625Z,20.13
2022-08-22T08:55:21.688Z,20.02
2022-08-22T08:58:12.045Z,19.88
2022-08-22T09:01:18.645Z,19.78
2022-08-22T09:04:05.014Z,19.68
2022-08-22T09:07:14.911Z,19.58
2022-08-22T09:10:14.476Z,19.49
2022-08-22T09:13:11.772Z,19.41
2022-08-22T09:16:04.280Z,19.36
2022-08-22T09:18:51.150Z,19.31
2022-08-22T09:21:49.938Z,19.28
2022-08-22T09:24:36.128Z,19.25
2022-08-22T09:27:18.673Z,19.24
2022-08-22T09:30:28.486Z,19.22
2022-08-22T09:33:06.220Z,19.21
2022-08-22T09:36:06.582Z,19.21
2022-08-22T09:39:11.865Z,19.19
2022-08-22T09:42:26.287Z,19.19
2022-08-22T09:45:07.287Z,19.22
2022-08-22T09:48:07.939Z,19.23
2022-08-22T09:50:47.228Z,19.24
2022-08-22T09:53:51.023Z,19.27
2022-08-22T09:56:58.703Z,19.30
2022-08-22T10:00:01.076Z,19.32
2022-08-22T10:03:12.358Z,19.32
2022-08-22T10:06:14.157Z,19.35
2022-08-22T10:09:04.172Z,19.36
2022-08-22T10:11:47.023Z,19.34
2022-08-22T10:14:26.440Z,19.34
2022-08-22T10:17:21.595Z,19.77
2022-08-22T10:20:13.165Z,20.55
2022-08-22T10:23:10.317Z,20.85
2022-08-22T10:25:45.007Z,21.58
2022-08-22T10:29:00.318Z,22.28
2022-08-22T10:31:58.954Z,21.85
2022-08-22T10:34:40.423Z,21.48
2022-08-22T10:37:23.936Z,22.17
2022-08-22T10:40:14.862Z,22.86
2022-08-22T10:43:33.772Z,22.87
2022-08-22T10:46:12.347Z,22.52
2022-08-22T10:48:58.030Z,22.35
2022-08-22T10:51:46.418Z,22.37
2022-08-22T10:54:30.418Z,22.90
2022-08-22T10:57:44.266Z,22.75
2022-08-22T11:00:31.241Z,22.33
2022-08-22T11:03:23.233Z,22.08
2022-08-22T11:06:05.246Z,21.87
2022-08-22T11:09:02.333Z,21.72
2022-08-22T11:11:50.620Z,21.61
2022-08-22T11:15:28.486Z,21.39
2022-08-22T11:19:15.357Z,21.23
2022-08-22T11:22:22.840Z,21.13
2022-08-22T11:25:41.440Z,20.96
2022-08-22T11:28:57.133Z,20.81
2022-08-22T11:31:47.258Z,20.70
2022-08-22T11:34:50.222Z,20.61
2022-08-22T11:37:42.266Z,20.51
2022-08-22T11:40:38.565Z,20.43
2022-08-22T11:43:32.506Z,20.36
2022-08-22T11:46:20.262Z,20.29
2022-08-22T11:49:19.181Z,20.24
2022-08-22T11:52:34.157Z,20.19
2022-08-22T11:55:34.505Z,20.16
2022-08-22T11:58:33.124Z,20.12
2022-08-22T12:01:18.634Z,20.09
2022-08-22T12:03:55.622Z,20.03
2022-08-22T12:07:02.996Z,20.05
2022-08-22T12:09:56.272Z,20.15
2022-08-22T12:12:55.543Z,20.23
2022-08-22T12:15:54.018Z,20.23
2022-08-22T12:18:53.053Z,20.21
2022-08-22T12:21:42.315Z,20.19
2022-08-22T12:25:02.664Z,20.20
2022-08-22T12:28:15.856Z,20.23
2022-08-22T12:31:06.136Z,20.21
2022-08-22T12:34:26.752Z,20.21
2022-08-22T12:37:22.501Z,20.20
2022-08-22T12:40:37.142Z,20.13
2022-08-22T12:44:21.127Z,20.05
2022-08-22T12:47:32.179Z,19.99
2022-08-22T12:50:37.518Z,19.96
2022-08-22T12:54:06.406Z,19.97
2022-08-22T12:57:23.845Z,19.95
2022-08-22T13:00:23.127Z,19.94
2022-08-22T13:03:11.704Z,20.01
2022-08-22T13:05:44.500Z,20.06
2022-08-22T13:08:37.399Z,20.11
2022-08-22T13:11:15.129Z,20.13
2022-08-22T13:14:01.322Z,20.06
2022-08-22T13:16:49.065Z,19.99
2022-08-22T13:20:06.721Z,20.00
2022-08-22T13:22:45.268Z,20.00
2022-08-22T13:25:25.930Z,20.04
2022-08-22T13:28:11.563Z,20.03
2022-08-22T13:30:41.990Z,20.04
2022-08-22T13:33:25.175Z,20.13
2022-08-22T13:35:56.991Z,20.22
2022-08-22T13:38:35.332Z,20.27
2022-08-22T13:41:14.839Z,20.25
2022-08-22T13:44:06.650Z,20.24
2022-08-22T13:46:52.831Z,20.27
2022-08-22T13:49:40.762Z,20.28
2022-08-22T13:52:30.652Z,20.27
2022-08-22T13:55:12.175Z,20.29
2022-08-22T13:57:52.708Z,20.31
2022-08-22T14:00:38.554Z,20.33
2022-08-22T14:03:36.250Z,20.37
2022-08-22T14:06:38.396Z,20.42
2022-08-22T14:09:27.941Z,20.47
2022-08-22T14:13:12.874Z,20.51
2022-08-22T14:15:45.953Z,20.56
2022-08-22T14:18:45.590Z,20.57
2022-08-22T14:22:07.200Z,20.58
2022-08-22T14:25:23.631Z,20.62
2022-08-22T14:28:06.213Z,20.66
2022-08-22T14:31:14.632Z,20.68
2022-08-22T14:34:07.836Z,20.69
2022-08-22T14:36:59.621Z,20.70
2022-08-22T14:39:54.737Z,20.71
2022-08-22T14:42:52.481Z,20.73
2022-08-22T14:45:42.566Z,20.74
2022-08-22T14:48:31.027Z,20.72
2022-08-22T14:51:30.798Z,20.69
2022-08-22T14:54:28.913Z,20.67
2022-08-22T14:57:01.470Z,20.63
2022-08-22T14:59:37.731Z,20.63
2022-08-22T15:02:13.212Z,20.64
2022-08-22T15:04:48.648Z,20.61
2022-08-22T15:07:36.419Z,20.56
2022-08-22T15:10:12.122Z,20.53
2022-08-22T15:12:51.841Z,20.51
2022-08-22T15:15:41.258Z,20.51
2022-08-22T15:18:39.012Z,20.49
2022-08-22T15:21:24.145Z,20.47
2022-08-22T15:23:59.578Z,20.44
2022-08-22T15:26:51.521Z,20.43
2022-08-22T15:29:28.112Z,20.42
2022-08-22T15:32:01.835Z,20.43
2022-08-22T15:38:32.019Z,20.44
2022-08-22T15:41:37.200Z,20.46
2022-08-22T15:44:33.116Z,20.52
2022-08-22T15:47:32.839Z,20.61
2022-08-22T15:50:17.777Z,20.61
2022-08-22T15:53:11.752Z,20.61
2022-08-22T15:56:05.026Z,20.61
2022-08-22T15:58:40.413Z,20.61
2022-08-22T16:01:20.510Z,20.60
2022-08-22T16:04:06.808Z,20.60
2022-08-22T16:06:58.105Z,20.61
2022-08-22T16:09:36.949Z,20.61
2022-08-22T16:12:34.902Z,20.60
2022-08-22T16:15:08.309Z,20.59
2022-08-22T16:17:44.789Z,20.57
2022-08-22T16:20:20.020Z,20.56
2022-08-22T16:22:58.320Z,20.55
2022-08-22T16:25:44.855Z,20.54
2022-08-22T16:28:57.331Z,20.55
2022-08-22T16:31:42.803Z,20.64
2022-08-22T16:34:16.820Z,20.69
2022-08-22T16:37:03.084Z,20.68
2022-08-22T16:40:04.715Z,20.63
2022-08-22T16:42:51.845Z,20.61
2022-08-22T16:45:45.472Z,20.59
2022-08-22T16:48:35.807Z,20.57
2022-08-22T16:51:15.500Z,20.56
2022-08-22T16:54:12.141Z,20.56
2022-08-22T16:57:07.795Z,20.55
2022-08-22T17:00:22.731Z,20.55
2022-08-22T17:03:36.092Z,20.55
2022-08-22T17:06:48.613Z,20.54
2022-08-22T17:09:54.837Z,20.51
2022-08-22T17:12:45.473Z,20.49
2022-08-22T17:15:34.814Z,20.48
2022-08-22T17:18:31.263Z,20.47
2022-08-22T17:21:07.431Z,20.47
2022-08-22T17:23:47.323Z,20.48
2022-08-22T17:26:41.548Z,20.49
2022-08-22T17:29:41.295Z,20.44
2022-08-22T17:32:47.038Z,20.39
2022-08-22T17:35:36.900Z,20.35
2022-08-22T17:38:33.286Z,20.34
2022-08-22T17:41:29.070Z,20.32
2022-08-22T17:44:33.428Z,20.29
2022-08-22T17:47:16.172Z,20.31
2022-08-22T17:50:19.353Z,20.33
2022-08-22T17:52:51.625Z,20.34
2022-08-22T17:55:29.223Z,20.35
2022-08-22T17:58:04.091Z,20.34
2022-08-22T18:00:38.233Z,20.34
2022-08-22T18:03:27.594Z,20.33
2022-08-22T18:06:12.519Z,20.34
2022-08-22T18:11:58.690Z,20.33
2022-08-22T18:14:55.116Z,20.32
2022-08-22T18:17:33.745Z,20.29
2022-08-22T18:20:25.254Z,20.26
2022-08-22T18:23:45.043Z,20.24
2022-08-22T18:26:58.278Z,20.25
2022-08-22T18:29:43.966Z,20.25
2022-08-22T18:32:41.961Z,20.26
2022-08-22T18:35:40.703Z,20.26
2022-08-22T18:38:52.795Z,20.25
2022-08-22T18:41:45.867Z,20.24
2022-08-22T18:44:26.442Z,20.22
2022-08-22T18:46:57.983Z,20.22
2022-08-22T18:49:25.985Z,20.20
2022-08-22T18:52:06.247Z,20.19
2022-08-22T18:55:08.434Z,20.18
2022-08-22T18:58:08.444Z,20.16
2022-08-22T19:01:01.556Z,20.16
2022-08-22T19:03:54.417Z,20.15
2022-08-22T19:06:36.922Z,20.14
2022-08-22T19:09:39.930Z,20.11
2022-08-22T19:13:03.627Z,20.09
2022-08-22T19:15:48.172Z,20.08
2022-08-22T19:18:31.927Z,20.08
2022-08-22T19:21:53.321Z,20.06
2022-08-22T19:24:27.255Z,20.02
2022-08-22T19:27:10.654Z,19.97
2022-08-22T19:29:38.624Z,19.92
2022-08-22T19:32:13.049Z,19.88
2022-08-22T19:34:46.789Z,19.86
2022-08-22T19:37:30.696Z,19.84
2022-08-22T19:40:10.822Z,19.79
2022-08-22T19:42:41.644Z,19.73
2022-08-22T19:45:26.700Z,19.67
2022-08-22T19:48:10.519Z,19.67
2022-08-22T19:50:42.640Z,19.68
2022-08-22T19:53:36.968Z,19.69
2022-08-22T19:56:17.585Z,19.70
2022-08-22T19:59:24.303Z,19.69
2022-08-22T20:02:18.572Z,19.68
2022-08-22T20:05:02.635Z,19.66
2022-08-22T20:08:10.864Z,19.66
2022-08-22T20:11:06.029Z,19.69
2022-08-22T20:13:36.150Z,19.68
2022-08-22T20:16:16.614Z,19.66
2022-08-22T20:19:08.002Z,19.64
2022-08-22T20:21:43.594Z,19.62
2022-08-22T20:24:42.274Z,19.63
2022-08-22T20:27:27.827Z,19.62
2022-08-22T20:30:05.557Z,19.61
2022-08-22T20:32:49.653Z,19.61
2022-08-22T20:35:27.451Z,19.60
2022-08-22T20:38:07.461Z,19.60
2022-08-22T20:44:53.244Z,19.62
2022-08-22T20:47:40.735Z,19.67
2022-08-22T20:50:29.293Z,19.72
2022-08-22T20:53:24.913Z,19.74
2022-08-22T20:55:57.302Z,19.71
2022-08-22T20:58:44.898Z,19.68
2022-08-22T21:01:49.942Z,19.68
2022-08-22T21:04:20.147Z,19.70
2022-08-22T21:07:02.037Z,19.74
2022-08-22T21:09:53.320Z,19.77
2022-08-22T21:12:31.606Z,19.85
2022-08-22T21:15:02.578Z,19.92
2022-08-22T21:17:39.181Z,19.97
2022-08-22T21:20:23.236Z,20.01
2022-08-22T21:22:57.560Z,20.07
2022-08-22T21:25:26.329Z,20.11
2022-08-22T21:27:55.134Z,20.15
2022-08-22T21:30:26.933Z,20.18
2022-08-22T21:32:56.419Z,20.21
2022-08-22T21:35:33.093Z,20.23
2022-08-22T21:38:02.490Z,20.27
2022-08-22T21:40:36.796Z,20.30
2022-08-22T21:43:11.898Z,20.32
2022-08-22T21:45:39.797Z,20.35
2022-08-22T21:48:33.178Z,20.35
2022-08-22T21:51:42.754Z,20.37
2022-08-22T21:54:25.987Z,20.39
2022-08-22T21:56:57.476Z,20.42
2022-08-22T21:59:51.099Z,20.43
2022-08-22T22:02:40.740Z,20.44
2022-08-22T22:05:17.784Z,20.45
2022-08-22T22:07:47.505Z,20.45
2022-08-22T22:10:19.484Z,20.46
2022-08-22T22:12:51.920Z,20.46
2022-08-22T22:15:23.526Z,20.46
2022-08-22T22:17:51.849Z,20.44
2022-08-22T22:20:23.137Z,20.42
2022-08-22T22:22:53.065Z,20.38
2022-08-22T22:25:41.324Z,20.36
2022-08-22T22:28:22.731Z,20.36
2022-08-22T22:30:53.513Z,20.35
2022-08-22T22:33:25.714Z,20.35
2022-08-22T22:35:56.410Z,20.33
2022-08-22T22:38:24.633Z,20.31
2022-08-22T22:40:52.977Z,20.30
2022-08-22T22:43:21.076Z,20.32
2022-08-22T22:45:48.848Z,20.32
2022-08-22T22:48:23.858Z,20.30
2022-08-22T22:50:54.889Z,20.29
2022-08-22T22:53:33.710Z,20.28
2022-08-22T22:56:15.723Z,20.27
2022-08-22T22:58:44.389Z,20.28
2022-08-22T23:01:15.317Z,20.28
2022-08-22T23:03:44.730Z,20.27
2022-08-22T23:06:18.897Z,20.25
2022-08-22T23:08:47.438Z,20.26
2022-08-22T23:11:21.107Z,20.28
2022-08-22T23:13:49.612Z,20.30
2022-08-22T23:16:22.115Z,20.31
2022-08-22T23:18:50.082Z,20.33
2022-08-22T23:21:23.719Z,20.34
2022-08-22T23:23:54.901Z,20.36
2022-08-22T23:26:23.276Z,20.38
2022-08-22T23:28:51.408Z,20.39
2022-08-22T23:31:31.596Z,20.39
2022-08-22T23:34:32.082Z,20.39
2022-08-22T23:37:06.917Z,20.40
2022-08-22T23:39:38.280Z,20.40
2022-08-22T23:42:07.925Z,20.39
2022-08-22T23:44:39.406Z,20.38
2022-08-22T23:47:09.502Z,20.37
2022-08-22T23:49:39.619Z,20.36
2022-08-22T23:52:09.931Z,20.36
2022-08-22T23:54:37.936Z,20.35
2022-08-22T23:57:11.528Z,20.35
2022-08-22T23:59:47.873Z,20.35
